Time;durP1;ratioP1;P1;durP2;ratioP2;P2;SDS_P1;SDS_P2;PMS_P1;PMS_P2;Temp;Humidity;BMP_temperature;BMP_pressure;BME280_temperature;BME280_humidity;BME280_pressure;Samples;Min_cycle;Max_cycle;Signal;HPM_P1;HPM_P2
2022/08/05 00:02:06;;;;;;;5.78;5.17;;;;;;;;;;1857619;75;26243;-86
2022/08/05 00:04:33;;;;;;;6.12;5.62;;;;;;;;;;1859559;74;26251;-86
2022/08/05 00:07:00;;;;;;;5.95;5.50;;;;;;;;;;1869712;75;26218;-86
2022/08/05 00:09:28;;;;;;;5.97;5.50;;;;;;;;;;1869109;74;26334;-87
2022/08/05 00:11:55;;;;;;;5.60;5.20;;;;;;;;;;1875963;73;26225;-87
2022/08/05 00:14:23;;;;;;;6.10;5.60;;;;;;;;;;1842547;72;26214;-87
2022/08/05 00:16:50;;;;;;;6.10;5.60;;;;;;;;;;1884171;72;26576;-86
2022/08/05 00:19:17;;;;;;;5.75;5.25;;;;;;;;;;1879685;74;26197;-86
2022/08/05 00:21:44;;;;;;;5.72;5.30;;;;;;;;;;1875665;75;26856;-86
2022/08/05 00:24:12;;;;;;;5.92;5.53;;;;;;;;;;1879935;71;26260;-86
2022/08/05 00:26:39;;;;;;;6.12;5.67;;;;;;;;;;1871818;75;26224;-87
2022/08/05 00:29:06;;;;;;;5.90;5.40;;;;;;;;;;1875582;75;26187;-86
2022/08/05 00:31:33;;;;;;;5.97;5.40;;;;;;;;;;1864422;75;26303;-86
2022/08/05 00:34:01;;;;;;;8.23;5.80;;;;;;;;;;1868695;76;26728;-87
2022/08/05 00:36:28;;;;;;;6.20;5.70;;;;;;;;;;1878310;75;26734;-86
2022/08/05 00:38:55;;;;;;;6.80;6.05;;;;;;;;;;1876613;75;26210;-86
2022/08/05 00:41:27;;;;;;;5.90;5.50;;;;;;;;;;1875846;75;26174;-87
2022/08/05 00:43:55;;;;;;;6.20;5.80;;;;;;;;;;1874375;75;26709;-87
2022/08/05 00:46:22;;;;;;;6.12;5.67;;;;;;;;;;1871254;75;26764;-86
2022/08/05 00:48:50;;;;;;;6.00;5.60;;;;;;;;;;1854985;75;26294;-85
2022/08/05 00:51:20;;;;;;;6.30;5.80;;;;;;;;;;1843604;75;26223;-86
2022/08/05 00:53:47;;;;;;;6.05;5.55;;;;;;;;;;1852327;75;26225;-86
2022/08/05 00:56:15;;;;;;;6.12;5.62;;;;;;;;;;1853442;75;26219;-86
2022/08/05 00:58:43;;;;;;;6.20;5.70;;;;;;;;;;1841537;75;26240;-86
2022/08/05 01:01:11;;;;;;;5.90;5.50;;;;;;;;;;1877122;75;26287;-86
2022/08/05 01:03:39;;;;;;;5.78;5.37;;;;;;;;;;1886936;74;26343;-87
2022/08/05 01:06:06;;;;;;;5.90;5.47;;;;;;;;;;1878538;75;26202;-87
2022/08/05 01:08:35;;;;;;;6.00;5.58;;;;;;;;;;1869125;75;26694;-86
2022/08/05 01:11:04;;;;;;;7.00;6.37;;;;;;;;;;1862419;75;26178;-87
2022/08/05 01:13:38;;;;;;;6.45;5.85;;;;;;;;;;1868109;75;26806;-87
2022/08/05 01:16:07;;;;;;;6.10;5.70;;;;;;;;;;1861665;75;26370;-87
2022/08/05 01:18:36;;;;;;;6.87;5.75;;;;;;;;;;1874505;75;26240;-88
2022/08/05 01:21:24;;;;;;;6.80;6.25;;;;;;;;;;1852923;75;26248;-87
2022/08/05 01:23:57;;;;;;;6.37;5.78;;;;;;;;;;1857366;75;26318;-87
2022/08/05 01:26:32;;;;;;;6.08;5.65;;;;;;;;;;1852822;75;26170;-87
2022/08/05 01:29:03;;;;;;;5.92;5.42;;;;;;;;;;1861930;75;26226;-87
2022/08/05 01:31:32;;;;;;;6.55;5.97;;;;;;;;;;1860409;74;26278;-87
2022/08/05 01:34:01;;;;;;;5.87;5.47;;;;;;;;;;1870924;75;26207;-87
2022/08/05 01:36:30;;;;;;;6.28;5.78;;;;;;;;;;1863796;74;26302;-86
2022/08/05 01:38:58;;;;;;;6.10;5.60;;;;;;;;;;1870105;74;26706;-86
2022/08/05 01:41:26;;;;;;;6.45;5.85;;;;;;;;;;1876930;74;26219;-86
2022/08/05 01:43:54;;;;;;;6.20;5.80;;;;;;;;;;1844385;75;26596;-87
2022/08/05 01:46:22;;;;;;;5.97;5.58;;;;;;;;;;1869656;75;26613;-87
2022/08/05 01:48:50;;;;;;;6.15;5.60;;;;;;;;;;1878655;75;26304;-86
2022/08/05 01:51:17;;;;;;;6.28;5.78;;;;;;;;;;1871737;74;26685;-87
2022/08/05 01:53:46;;;;;;;6.35;5.78;;;;;;;;;;1880051;75;26232;-86
2022/08/05 01:56:15;;;;;;;6.12;5.72;;;;;;;;;;1838418;75;26237;-87
2022/08/05 01:58:43;;;;;;;6.17;5.67;;;;;;;;;;1846390;75;26279;-87
2022/08/05 02:01:12;;;;;;;5.75;5.35;;;;;;;;;;1861852;75;26296;-87
2022/08/05 02:03:40;;;;;;;6.10;5.60;;;;;;;;;;1853097;75;26233;-87
2022/08/05 02:06:08;;;;;;;6.33;5.72;;;;;;;;;;1859056;74;26292;-87
2022/08/05 02:08:37;;;;;;;6.15;5.75;;;;;;;;;;1874394;74;26261;-87
2022/08/05 02:11:06;;;;;;;6.08;5.60;;;;;;;;;;1860566;75;26206;-86
2022/08/05 02:13:40;;;;;;;6.28;5.70;;;;;;;;;;1872367;75;26234;-87
2022/08/05 02:16:09;;;;;;;6.00;5.60;;;;;;;;;;1867823;75;26688;-85
2022/08/05 02:18:47;;;;;;;6.33;5.83;;;;;;;;;;1845036;75;26639;-86
2022/08/05 02:21:21;;;;;;;6.00;5.50;;;;;;;;;;1841402;74;26845;-86
2022/08/05 02:23:50;;;;;;;5.55;5.20;;;;;;;;;;1868270;75;26310;-86
2022/08/05 02:26:22;;;;;;;5.62;5.22;;;;;;;;;;1861725;75;26286;-86
2022/08/05 02:28:49;;;;;;;5.70;5.30;;;;;;;;;;1882691;75;26351;-86
2022/08/05 02:31:18;;;;;;;6.22;5.72;;;;;;;;;;1878865;75;26803;-86
2022/08/05 02:33:47;;;;;;;6.15;5.55;;;;;;;;;;1856862;75;26295;-86
2022/08/05 02:36:16;;;;;;;6.05;5.60;;;;;;;;;;1867782;75;26734;-86
2022/08/05 02:38:44;;;;;;;5.65;5.25;;;;;;;;;;1871649;75;26220;-87
2022/08/05 02:41:12;;;;;;;6.05;5.65;;;;;;;;;;1858178;74;26321;-87
2022/08/05 02:43:40;;;;;;;5.78;5.37;;;;;;;;;;1874426;75;26254;-87
2022/08/05 02:46:08;;;;;;;6.10;5.60;;;;;;;;;;1862418;75;26323;-86
2022/08/05 02:48:36;;;;;;;6.00;5.50;;;;;;;;;;1878385;75;26290;-87
2022/08/05 02:51:04;;;;;;;5.75;5.35;;;;;;;;;;1867149;74;27054;-87
2022/08/05 02:53:31;;;;;;;5.97;5.47;;;;;;;;;;1869787;75;26272;-86
2022/08/05 02:56:00;;;;;;;5.87;5.47;;;;;;;;;;1865870;74;26283;-87
2022/08/05 02:58:27;;;;;;;5.60;5.20;;;;;;;;;;1865930;74;26805;-87
2022/08/05 03:00:56;;;;;;;5.72;5.33;;;;;;;;;;1863406;74;26216;-87
2022/08/05 03:03:23;;;;;;;5.75;5.35;;;;;;;;;;1874069;74;26714;-87
2022/08/05 03:05:51;;;;;;;5.95;5.55;;;;;;;;;;1878518;74;26253;-87
2022/08/05 03:08:18;;;;;;;5.87;5.37;;;;;;;;;;1871202;75;26223;-86
2022/08/05 03:10:45;;;;;;;6.00;5.50;;;;;;;;;;1857113;75;26346;-87
2022/08/05 03:13:13;;;;;;;5.92;5.50;;;;;;;;;;1866126;75;26238;-87
2022/08/05 03:15:42;;;;;;;5.78;5.37;;;;;;;;;;1861543;75;26285;-86
2022/08/05 03:18:09;;;;;;;5.75;5.22;;;;;;;;;;1855687;75;26230;-87
2022/08/05 03:20:36;;;;;;;5.72;5.33;;;;;;;;;;1863293;75;26265;-87
2022/08/05 03:23:05;;;;;;;5.90;5.50;;;;;;;;;;1870840;75;26365;-87
2022/08/05 03:25:34;;;;;;;6.70;5.60;;;;;;;;;;1859475;75;26248;-87
2022/08/05 03:28:02;;;;;;;5.42;5.03;;;;;;;;;;1856699;75;26263;-87
2022/08/05 03:30:31;;;;;;;5.62;5.12;;;;;;;;;;1854327;74;26273;-87
2022/08/05 03:33:02;;;;;;;5.92;5.42;;;;;;;;;;1875732;75;27008;-87
2022/08/05 03:35:31;;;;;;;5.72;5.22;;;;;;;;;;1848627;75;26788;-87
2022/08/05 03:37:59;;;;;;;6.30;5.80;;;;;;;;;;1863718;74;26322;-87
2022/08/05 03:40:27;;;;;;;5.92;5.50;;;;;;;;;;1870879;75;26278;-87
2022/08/05 03:42:54;;;;;;;5.47;5.08;;;;;;;;;;1834975;75;26325;-87
2022/08/05 03:45:21;;;;;;;5.80;5.40;;;;;;;;;;1837300;76;26230;-87
2022/08/05 03:47:48;;;;;;;5.62;5.15;;;;;;;;;;1875926;74;26292;-87
2022/08/05 03:50:16;;;;;;;6.35;5.85;;;;;;;;;;1855934;75;26264;-87
2022/08/05 03:52:53;;;;;;;5.87;5.30;;;;;;;;;;1868194;75;27213;-87
2022/08/05 03:55:22;;;;;;;5.45;5.05;;;;;;;;;;1860082;75;27057;-87
2022/08/05 03:57:51;;;;;;;5.60;5.20;;;;;;;;;;1865750;74;26331;-87
2022/08/05 04:00:25;;;;;;;6.17;5.67;;;;;;;;;;1874529;75;26743;-87
2022/08/05 04:02:50;;;;;;;5.53;5.12;;;;;;;;;;1872323;75;26278;-86
2022/08/05 04:05:17;;;;;;;5.72;5.33;;;;;;;;;;1875508;75;26212;-86
2022/08/05 04:07:44;;;;;;;5.83;5.30;;;;;;;;;;1875121;74;26238;-87
2022/08/05 04:10:12;;;;;;;6.10;5.50;;;;;;;;;;1870254;74;26391;-86
2022/08/05 04:12:39;;;;;;;5.85;5.45;;;;;;;;;;1879700;74;26248;-87
2022/08/05 04:15:07;;;;;;;5.80;5.30;;;;;;;;;;1880713;74;26213;-87
2022/08/05 04:17:34;;;;;;;5.35;5.00;;;;;;;;;;1883495;75;26211;-87
2022/08/05 04:20:01;;;;;;;5.95;5.55;;;;;;;;;;1872844;74;26269;-87
2022/08/05 04:22:29;;;;;;;5.75;5.22;;;;;;;;;;1863744;75;26683;-87
2022/08/05 04:24:56;;;;;;;5.55;5.15;;;;;;;;;;1875310;75;26222;-86
2022/08/05 04:27:25;;;;;;;5.20;4.90;;;;;;;;;;1870490;75;26243;-87
2022/08/05 04:29:52;;;;;;;5.75;5.25;;;;;;;;;;1837515;75;26268;-87
2022/08/05 04:32:19;;;;;;;5.97;5.40;;;;;;;;;;1862126;74;26706;-87
2022/08/05 04:34:47;;;;;;;5.42;5.12;;;;;;;;;;1864167;75;26683;-87
2022/08/05 04:37:14;;;;;;;5.90;5.47;;;;;;;;;;1854867;75;26827;-87
2022/08/05 04:39:41;;;;;;;5.62;5.22;;;;;;;;;;1854616;75;26246;-87
2022/08/05 04:42:08;;;;;;;5.58;5.17;;;;;;;;;;1874076;74;26263;-88
2022/08/05 04:44:36;;;;;;;5.58;5.20;;;;;;;;;;1859065;74;26707;-88
2022/08/05 04:47:03;;;;;;;5.87;5.37;;;;;;;;;;1841980;75;26710;-87
2022/08/05 04:49:30;;;;;;;5.95;5.30;;;;;;;;;;1857749;74;26241;-87
2022/08/05 04:51:58;;;;;;;5.45;5.05;;;;;;;;;;1866210;74;26284;-87
2022/08/05 04:54:26;;;;;;;5.92;5.42;;;;;;;;;;1872492;75;26210;-86
2022/08/05 04:56:53;;;;;;;5.65;5.25;;;;;;;;;;1873282;74;26743;-87
2022/08/05 04:59:21;;;;;;;6.00;5.40;;;;;;;;;;1878406;75;26393;-86
2022/08/05 05:01:49;;;;;;;5.78;5.30;;;;;;;;;;1870353;75;26346;-87
2022/08/05 05:04:16;;;;;;;6.00;5.50;;;;;;;;;;1876835;74;26274;-86
2022/08/05 05:06:44;;;;;;;5.58;5.17;;;;;;;;;;1877951;74;26231;-87
2022/08/05 05:09:12;;;;;;;5.65;5.25;;;;;;;;;;1874386;74;25924;-87
2022/08/05 05:11:39;;;;;;;5.80;5.30;;;;;;;;;;1800862;77;26253;-87
2022/08/05 05:14:06;;;;;;;5.60;5.20;;;;;;;;;;1822877;76;26207;-87
2022/08/05 05:16:33;;;;;;;5.58;5.20;;;;;;;;;;1854005;74;26324;-87
2022/08/05 05:19:01;;;;;;;5.75;5.35;;;;;;;;;;1865433;75;27114;-87
2022/08/05 05:21:28;;;;;;;5.97;5.47;;;;;;;;;;1877754;74;26800;-86
2022/08/05 05:23:55;;;;;;;5.53;5.10;;;;;;;;;;1876684;74;26282;-86
2022/08/05 05:26:22;;;;;;;5.60;5.20;;;;;;;;;;1873448;74;26209;-87
2022/08/05 05:28:50;;;;;;;7.08;5.30;;;;;;;;;;1880500;74;26230;-87
2022/08/05 05:31:17;;;;;;;5.12;4.78;;;;;;;;;;1879008;74;26213;-86
2022/08/05 05:33:44;;;;;;;5.33;5.00;;;;;;;;;;1870236;75;26351;-87
2022/08/05 05:36:12;;;;;;;5.90;5.30;;;;;;;;;;1869814;75;26361;-86
2022/08/05 05:38:39;;;;;;;5.40;5.10;;;;;;;;;;1864062;75;26270;-87
2022/08/05 05:41:07;;;;;;;5.53;5.12;;;;;;;;;;1868393;74;26344;-87
2022/08/05 05:43:34;;;;;;;7.12;5.37;;;;;;;;;;1862646;75;26353;-86
2022/08/05 05:46:01;;;;;;;5.58;5.12;;;;;;;;;;1876285;75;26737;-87
2022/08/05 05:48:28;;;;;;;5.80;5.22;;;;;;;;;;1873351;74;26213;-87
2022/08/05 05:50:56;;;;;;;5.40;5.00;;;;;;;;;;1856597;75;26650;-86
2022/08/05 05:53:23;;;;;;;5.45;5.08;;;;;;;;;;1878835;75;26740;-87
2022/08/05 05:55:50;;;;;;;5.75;5.35;;;;;;;;;;1876401;75;26377;-87
2022/08/05 05:58:17;;;;;;;5.95;5.45;;;;;;;;;;1875938;75;26243;-87
2022/08/05 06:00:45;;;;;;;5.42;5.00;;;;;;;;;;1864857;75;26264;-87
2022/08/05 06:03:12;;;;;;;5.42;5.05;;;;;;;;;;1878318;74;26300;-88
2022/08/05 06:05:40;;;;;;;5.80;5.40;;;;;;;;;;1875270;75;26217;-87
2022/08/05 06:08:09;;;;;;;6.75;5.60;;;;;;;;;;1866487;75;26201;-87
2022/08/05 06:10:36;;;;;;;6.92;6.33;;;;;;;;;;1875215;75;26744;-87
2022/08/05 06:13:04;;;;;;;7.47;5.87;;;;;;;;;;1864106;75;27047;-87
2022/08/05 06:15:31;;;;;;;7.85;6.33;;;;;;;;;;1865506;75;26258;-87
2022/08/05 06:17:58;;;;;;;6.00;5.30;;;;;;;;;;1872423;74;26629;-87
2022/08/05 06:20:25;;;;;;;6.62;5.60;;;;;;;;;;1874652;75;26752;-87
2022/08/05 06:22:53;;;;;;;6.80;6.10;;;;;;;;;;1877086;74;26207;-86
2022/08/05 06:25:20;;;;;;;6.78;6.08;;;;;;;;;;1870335;75;26223;-85
2022/08/05 06:27:47;;;;;;;8.70;6.20;;;;;;;;;;1876190;74;26245;-87
2022/08/05 06:30:15;;;;;;;7.90;6.40;;;;;;;;;;1873956;75;26651;-88
2022/08/05 06:32:42;;;;;;;6.90;6.20;;;;;;;;;;1871438;74;26324;-87
2022/08/05 06:35:10;;;;;;;7.00;6.40;;;;;;;;;;1871831;75;26836;-87
2022/08/05 06:37:37;;;;;;;9.45;5.92;;;;;;;;;;1867298;74;26299;-88
2022/08/05 06:40:05;;;;;;;7.80;5.83;;;;;;;;;;1883572;74;26278;-88
2022/08/05 06:42:32;;;;;;;6.47;5.87;;;;;;;;;;1871024;74;26289;-88
2022/08/05 06:44:59;;;;;;;6.25;5.70;;;;;;;;;;1870288;74;26264;-88
2022/08/05 06:47:27;;;;;;;6.35;5.70;;;;;;;;;;1870356;74;26223;-89
2022/08/05 06:49:54;;;;;;;5.95;5.40;;;;;;;;;;1845060;75;26146;-89
2022/08/05 06:52:21;;;;;;;6.25;5.75;;;;;;;;;;1867464;75;26211;-88
2022/08/05 06:54:49;;;;;;;11.28;6.10;;;;;;;;;;1886761;75;26239;-91
2022/08/05 06:57:17;;;;;;;8.08;5.50;;;;;;;;;;1887199;74;26289;-91
2022/08/05 06:59:44;;;;;;;7.22;5.70;;;;;;;;;;1866578;71;26268;-88
2022/08/05 07:02:11;;;;;;;10.98;5.87;;;;;;;;;;1879966;74;26247;-89
2022/08/05 07:04:39;;;;;;;15.32;5.72;;;;;;;;;;1867788;74;26216;-88
2022/08/05 07:07:06;;;;;;;11.55;5.40;;;;;;;;;;1876726;72;26306;-89
2022/08/05 07:09:33;;;;;;;15.88;5.42;;;;;;;;;;1876524;72;26260;-87
2022/08/05 07:12:00;;;;;;;11.53;5.17;;;;;;;;;;1873549;72;26161;-87
2022/08/05 07:17:13;;;;;;;8.18;4.90;;;;;;;;;;1875633;74;26224;-84
2022/08/05 07:19:40;;;;;;;5.92;5.10;;;;;;;;;;1888190;74;26313;-88
2022/08/05 07:22:08;;;;;;;8.53;4.80;;;;;;;;;;1871324;74;26198;-87
2022/08/05 07:24:35;;;;;;;11.60;4.80;;;;;;;;;;1868541;75;26335;-87
2022/08/05 07:27:02;;;;;;;8.70;4.83;;;;;;;;;;1875364;74;26701;-88
2022/08/05 07:29:29;;;;;;;5.53;4.58;;;;;;;;;;1880021;74;26280;-87
2022/08/05 07:31:57;;;;;;;7.75;4.75;;;;;;;;;;1879308;74;26202;-86
2022/08/05 07:34:24;;;;;;;4.67;4.20;;;;;;;;;;1878565;74;26314;-87
2022/08/05 07:36:51;;;;;;;4.60;4.20;;;;;;;;;;1876031;75;26212;-86
2022/08/05 07:39:19;;;;;;;4.30;3.90;;;;;;;;;;1869598;75;26174;-87
2022/08/05 07:41:46;;;;;;;5.30;4.12;;;;;;;;;;1887761;74;26976;-86
2022/08/05 07:44:14;;;;;;;4.47;4.00;;;;;;;;;;1877831;74;26345;-87
2022/08/05 07:46:41;;;;;;;6.85;4.90;;;;;;;;;;1857015;76;26271;-88
2022/08/05 07:49:08;;;;;;;4.42;4.12;;;;;;;;;;1877904;75;26193;-86
2022/08/05 07:51:37;;;;;;;5.17;4.28;;;;;;;;;;1874640;74;26174;-86
2022/08/05 07:54:05;;;;;;;4.45;4.05;;;;;;;;;;1871274;74;26300;-87
2022/08/05 07:56:32;;;;;;;4.12;3.92;;;;;;;;;;1886643;74;26304;-89
2022/08/05 07:59:00;;;;;;;4.95;3.95;;;;;;;;;;1869376;75;26800;-87
2022/08/05 08:01:27;;;;;;;4.65;4.17;;;;;;;;;;1870805;75;26235;-88
2022/08/05 08:03:54;;;;;;;4.20;3.90;;;;;;;;;;1865346;74;26238;-87
2022/08/05 08:06:22;;;;;;;4.40;3.92;;;;;;;;;;1877224;75;26186;-89
2022/08/05 08:08:49;;;;;;;4.03;3.80;;;;;;;;;;1829099;76;26326;-87
2022/08/05 08:11:16;;;;;;;4.60;4.15;;;;;;;;;;1858103;75;26221;-87
2022/08/05 08:13:43;;;;;;;7.53;4.50;;;;;;;;;;1878523;74;26258;-87
2022/08/05 08:16:11;;;;;;;4.33;3.95;;;;;;;;;;1870799;75;26202;-92
2022/08/05 08:18:38;;;;;;;4.58;4.17;;;;;;;;;;1869791;76;26712;-92
2022/08/05 08:21:06;;;;;;;4.03;3.72;;;;;;;;;;1868258;75;26623;-92
2022/08/05 08:23:34;;;;;;;4.00;3.80;;;;;;;;;;1862247;74;27202;-91
2022/08/05 08:26:01;;;;;;;4.40;3.83;;;;;;;;;;1885604;74;26299;-90
2022/08/05 08:28:29;;;;;;;4.17;3.87;;;;;;;;;;1867197;74;26250;-88
2022/08/05 08:30:56;;;;;;;3.77;3.50;;;;;;;;;;1875610;74;26210;-88
2022/08/05 08:33:24;;;;;;;4.53;3.42;;;;;;;;;;1863880;75;26238;-89
2022/08/05 08:35:51;;;;;;;3.70;3.50;;;;;;;;;;1885758;75;26217;-86
2022/08/05 08:38:18;;;;;;;10.55;3.50;;;;;;;;;;1877918;74;26245;-87
2022/08/05 08:40:47;;;;;;;8.85;4.10;;;;;;;;;;1885444;75;27106;-87
2022/08/05 08:43:16;;;;;;;4.25;3.35;;;;;;;;;;1867677;75;26733;-89
2022/08/05 08:45:46;;;;;;;5.03;3.40;;;;;;;;;;1884594;74;26254;-90
2022/08/05 08:48:15;;;;;;;3.42;3.12;;;;;;;;;;1869068;76;26272;-89
2022/08/05 08:50:43;;;;;;;3.22;3.02;;;;;;;;;;1873467;74;26204;-88
2022/08/05 08:53:11;;;;;;;3.50;3.40;;;;;;;;;;1853193;74;26201;-90
2022/08/05 08:55:40;;;;;;;3.98;3.35;;;;;;;;;;1874229;74;26331;-90
2022/08/05 08:58:08;;;;;;;8.68;3.20;;;;;;;;;;1880714;75;26222;-89
2022/08/05 09:00:36;;;;;;;5.03;3.10;;;;;;;;;;1862592;74;26363;-86
2022/08/05 09:03:05;;;;;;;5.83;3.67;;;;;;;;;;1865273;75;26332;-88
2022/08/05 09:05:32;;;;;;;18.10;3.67;;;;;;;;;;1879523;75;26571;-89
2022/08/05 09:08:00;;;;;;;3.65;3.35;;;;;;;;;;1867534;75;26217;-89
2022/08/05 09:10:28;;;;;;;4.25;3.25;;;;;;;;;;1859784;74;26663;-91
2022/08/05 09:12:55;;;;;;;7.12;3.50;;;;;;;;;;1874672;75;26252;-88
2022/08/05 09:15:23;;;;;;;9.13;3.70;;;;;;;;;;1873659;75;26217;-86
2022/08/05 09:17:51;;;;;;;5.40;3.20;;;;;;;;;;1878057;75;26804;-85
2022/08/05 09:20:18;;;;;;;8.90;3.37;;;;;;;;;;1869711;74;26222;-86
2022/08/05 09:23:04;;;;;;;3.60;3.30;;;;;;;;;;1866091;75;26224;-87
2022/08/05 09:25:32;;;;;;;5.53;3.47;;;;;;;;;;1874813;75;26677;-86
2022/08/05 09:28:16;;;;;;;5.90;3.60;;;;;;;;;;1878446;75;26214;-85
2022/08/05 09:30:45;;;;;;;5.35;3.05;;;;;;;;;;1874471;75;26264;-86
2022/08/05 09:33:12;;;;;;;6.17;3.40;;;;;;;;;;1872490;74;26591;-87
2022/08/05 09:35:41;;;;;;;7.20;3.20;;;;;;;;;;1889406;74;26237;-87
2022/08/05 09:38:10;;;;;;;3.72;3.40;;;;;;;;;;1865091;74;26241;-86
2022/08/05 09:40:39;;;;;;;3.30;3.10;;;;;;;;;;1889427;75;26237;-84
2022/08/05 09:43:09;;;;;;;3.60;3.20;;;;;;;;;;1879057;75;26784;-85
2022/08/05 09:45:38;;;;;;;4.90;3.30;;;;;;;;;;1875074;74;26297;-85
2022/08/05 09:48:24;;;;;;;3.40;3.10;;;;;;;;;;1858622;75;26351;-84
2022/08/05 09:50:53;;;;;;;3.65;3.00;;;;;;;;;;1860511;74;26774;-85
2022/08/05 09:53:20;;;;;;;2.95;2.72;;;;;;;;;;1871554;75;26758;-87
2022/08/05 09:55:49;;;;;;;3.05;2.85;;;;;;;;;;1885789;74;26200;-87
2022/08/05 09:58:16;;;;;;;3.05;2.85;;;;;;;;;;1875455;75;26305;-87
2022/08/05 10:00:45;;;;;;;3.00;2.80;;;;;;;;;;1865137;74;26252;-89
2022/08/05 10:03:12;;;;;;;4.83;3.08;;;;;;;;;;1851540;75;26220;-91
2022/08/05 10:05:40;;;;;;;2.92;2.72;;;;;;;;;;1854126;75;26656;-89
2022/08/05 10:08:08;;;;;;;4.95;3.00;;;;;;;;;;1880075;75;26212;-88
2022/08/05 10:10:39;;;;;;;2.72;2.60;;;;;;;;;;1866389;74;26265;-88
2022/08/05 10:13:06;;;;;;;5.65;2.80;;;;;;;;;;1882047;74;26418;-88
2022/08/05 10:15:34;;;;;;;2.70;2.50;;;;;;;;;;1893137;74;26223;-89
2022/08/05 10:18:03;;;;;;;3.50;2.62;;;;;;;;;;1884130;75;26293;-89
2022/08/05 10:20:34;;;;;;;2.60;2.40;;;;;;;;;;1886110;74;26253;-88
2022/08/05 10:23:02;;;;;;;2.70;2.50;;;;;;;;;;1903613;74;26324;-89
2022/08/05 10:25:29;;;;;;;2.72;2.55;;;;;;;;;;1870179;75;26257;-88
2022/08/05 10:27:57;;;;;;;2.62;2.45;;;;;;;;;;1877535;74;27221;-88
2022/08/05 10:30:24;;;;;;;2.50;2.40;;;;;;;;;;1867178;75;26261;-91
2022/08/05 10:32:53;;;;;;;2.60;2.42;;;;;;;;;;1873097;74;26367;-89
2022/08/05 10:35:20;;;;;;;2.52;2.33;;;;;;;;;;1868315;75;26669;-89
2022/08/05 10:37:48;;;;;;;2.87;2.77;;;;;;;;;;1864790;76;26722;-88
2022/08/05 10:40:22;;;;;;;2.80;2.40;;;;;;;;;;1862262;74;26261;-88
2022/08/05 10:42:52;;;;;;;3.10;2.80;;;;;;;;;;1868536;75;26215;-88
2022/08/05 10:45:26;;;;;;;3.90;2.52;;;;;;;;;;1871849;75;26233;-87
2022/08/05 10:47:53;;;;;;;3.08;2.50;;;;;;;;;;1866630;74;26264;-88
2022/08/05 10:50:21;;;;;;;2.37;2.27;;;;;;;;;;1862419;74;26268;-88
2022/08/05 10:52:59;;;;;;;2.77;2.40;;;;;;;;;;1888973;75;26258;-88
2022/08/05 10:55:27;;;;;;;2.55;2.42;;;;;;;;;;1852480;75;26758;-88
2022/08/05 10:58:10;;;;;;;2.70;2.50;;;;;;;;;;1884576;74;26259;-89
2022/08/05 11:00:37;;;;;;;2.75;2.47;;;;;;;;;;1873629;75;26889;-88
2022/08/05 11:03:08;;;;;;;2.40;2.30;;;;;;;;;;1871111;75;26233;-88
2022/08/05 11:05:36;;;;;;;3.45;2.60;;;;;;;;;;1853874;76;26165;-88
2022/08/05 11:08:07;;;;;;;2.40;2.30;;;;;;;;;;1861494;75;26179;-90
2022/08/05 11:10:41;;;;;;;2.52;2.37;;;;;;;;;;1849933;75;26386;-89
2022/08/05 11:13:08;;;;;;;2.55;2.45;;;;;;;;;;1872931;76;26194;-89
2022/08/05 11:15:39;;;;;;;4.47;2.52;;;;;;;;;;1862333;75;26338;-88
2022/08/05 11:18:08;;;;;;;2.60;2.40;;;;;;;;;;1856751;74;26690;-89
2022/08/05 11:20:50;;;;;;;2.37;2.30;;;;;;;;;;1858021;74;26306;-88
2022/08/05 11:23:27;;;;;;;2.47;2.37;;;;;;;;;;1860662;74;26222;-88
2022/08/05 11:26:01;;;;;;;2.50;2.40;;;;;;;;;;1855031;74;26696;-88
2022/08/05 11:28:36;;;;;;;2.55;2.22;;;;;;;;;;1862578;75;26250;-88
2022/08/05 11:31:05;;;;;;;2.45;2.35;;;;;;;;;;1878314;74;26263;-88
2022/08/05 11:33:50;;;;;;;2.60;2.40;;;;;;;;;;1876194;75;26209;-88
2022/08/05 11:36:19;;;;;;;2.70;2.60;;;;;;;;;;1883754;75;26180;-89
2022/08/05 11:38:55;;;;;;;2.80;2.70;;;;;;;;;;1903071;74;26281;-88
2022/08/05 11:41:23;;;;;;;2.70;2.50;;;;;;;;;;1876964;74;26732;-88
2022/08/05 11:43:54;;;;;;;2.47;2.30;;;;;;;;;;1885989;75;26198;-88
2022/08/05 11:46:25;;;;;;;2.33;2.22;;;;;;;;;;1857127;76;26282;-87
2022/08/05 11:48:53;;;;;;;2.52;2.42;;;;;;;;;;1868764;75;26222;-87
2022/08/05 11:51:21;;;;;;;2.83;2.37;;;;;;;;;;1870813;75;26255;-87
2022/08/05 11:53:48;;;;;;;2.33;2.27;;;;;;;;;;1864722;74;26197;-88
2022/08/05 11:56:15;;;;;;;2.40;2.30;;;;;;;;;;1858752;75;26180;-88
2022/08/05 11:58:43;;;;;;;2.45;2.35;;;;;;;;;;1852197;76;26254;-88
2022/08/05 12:01:15;;;;;;;2.60;2.50;;;;;;;;;;1856919;75;26274;-88
2022/08/05 12:03:47;;;;;;;2.45;2.35;;;;;;;;;;1859538;75;26212;-87
2022/08/05 12:06:15;;;;;;;2.50;2.40;;;;;;;;;;1879087;74;26230;-88
2022/08/05 12:08:44;;;;;;;2.60;2.50;;;;;;;;;;1851749;74;26264;-88
2022/08/05 12:11:13;;;;;;;2.35;2.25;;;;;;;;;;1858357;74;26276;-90
2022/08/05 12:13:40;;;;;;;2.50;2.40;;;;;;;;;;1861488;75;26230;-89
2022/08/05 12:16:08;;;;;;;2.75;2.65;;;;;;;;;;1861789;75;26244;-89
2022/08/05 12:18:36;;;;;;;2.42;2.33;;;;;;;;;;1864132;75;26264;-89
2022/08/05 12:21:13;;;;;;;2.27;2.22;;;;;;;;;;1863073;75;26713;-88
2022/08/05 12:23:42;;;;;;;2.55;2.40;;;;;;;;;;1858079;75;26246;-88
2022/08/05 12:26:10;;;;;;;2.60;2.40;;;;;;;;;;1847399;74;26338;-89
2022/08/05 12:28:37;;;;;;;2.60;2.50;;;;;;;;;;1863120;75;26370;-87
2022/08/05 12:31:04;;;;;;;2.50;2.40;;;;;;;;;;1871843;75;26212;-88
2022/08/05 12:33:32;;;;;;;2.70;2.60;;;;;;;;;;1860903;74;26244;-89
2022/08/05 12:36:00;;;;;;;2.50;2.40;;;;;;;;;;1865832;75;26219;-87
2022/08/05 12:38:28;;;;;;;2.65;2.55;;;;;;;;;;1872479;75;26691;-88
2022/08/05 12:40:56;;;;;;;2.77;2.67;;;;;;;;;;1880622;74;26250;-87
2022/08/05 12:43:23;;;;;;;3.10;2.90;;;;;;;;;;1890841;74;27021;-88
2022/08/05 12:45:52;;;;;;;2.80;2.70;;;;;;;;;;1868497;74;26221;-88
2022/08/05 12:48:19;;;;;;;2.67;2.58;;;;;;;;;;1855533;75;26380;-88
2022/08/05 12:51:05;;;;;;;3.00;2.80;;;;;;;;;;1868242;75;26603;-91
2022/08/05 12:53:33;;;;;;;2.90;2.80;;;;;;;;;;1865722;74;26217;-88
2022/08/05 12:56:00;;;;;;;2.80;2.70;;;;;;;;;;1879477;75;26254;-89
2022/08/05 12:58:28;;;;;;;2.83;2.72;;;;;;;;;;1877803;76;26289;-88
2022/08/05 13:00:55;;;;;;;2.85;2.75;;;;;;;;;;1876932;74;26231;-88
2022/08/05 13:03:23;;;;;;;3.05;2.90;;;;;;;;;;1879642;74;26178;-87
2022/08/05 13:05:51;;;;;;;3.00;2.80;;;;;;;;;;1876570;75;26222;-88
2022/08/05 13:08:20;;;;;;;2.75;2.65;;;;;;;;;;1886285;74;26189;-88
2022/08/05 13:10:47;;;;;;;3.17;3.05;;;;;;;;;;1870057;74;26218;-87
2022/08/05 13:13:16;;;;;;;3.15;2.98;;;;;;;;;;1877858;75;26660;-89
2022/08/05 13:15:45;;;;;;;2.92;2.83;;;;;;;;;;1875125;74;26590;-88
2022/08/05 13:18:12;;;;;;;3.05;2.95;;;;;;;;;;1878167;74;26283;-87
2022/08/05 13:20:39;;;;;;;2.90;2.80;;;;;;;;;;1853708;75;26358;-89
2022/08/05 13:23:06;;;;;;;3.25;3.10;;;;;;;;;;1867799;75;26228;-88
2022/08/05 13:25:34;;;;;;;3.12;3.02;;;;;;;;;;1857291;75;26338;-88
2022/08/05 13:28:03;;;;;;;2.80;2.70;;;;;;;;;;1879460;75;26198;-86
2022/08/05 13:30:30;;;;;;;3.10;3.00;;;;;;;;;;1881804;72;26305;-89
2022/08/05 13:32:59;;;;;;;3.05;2.90;;;;;;;;;;1882349;72;26192;-90
2022/08/05 13:35:26;;;;;;;3.22;3.12;;;;;;;;;;1882711;72;26175;-86
2022/08/05 13:37:54;;;;;;;3.10;3.00;;;;;;;;;;1863169;74;26224;-88
2022/08/05 13:40:21;;;;;;;2.90;2.80;;;;;;;;;;1881957;73;26214;-89
2022/08/05 13:42:48;;;;;;;3.12;3.02;;;;;;;;;;1899548;71;26255;-88
2022/08/05 13:45:16;;;;;;;3.00;2.77;;;;;;;;;;1869367;72;26194;-88
2022/08/05 13:47:44;;;;;;;3.17;3.08;;;;;;;;;;1874788;74;26595;-87
2022/08/05 13:50:11;;;;;;;3.40;3.30;;;;;;;;;;1877098;74;26776;-87
2022/08/05 13:52:38;;;;;;;3.15;3.05;;;;;;;;;;1856266;74;26217;-86
2022/08/05 13:55:05;;;;;;;3.25;3.15;;;;;;;;;;1861359;75;26342;-87
2022/08/05 13:57:33;;;;;;;3.08;2.98;;;;;;;;;;1863917;75;26221;-87
2022/08/05 14:00:00;;;;;;;3.12;3.02;;;;;;;;;;1896032;74;26217;-87
2022/08/05 14:02:27;;;;;;;3.02;2.92;;;;;;;;;;1874133;74;26202;-88
2022/08/05 14:05:10;;;;;;;3.37;3.20;;;;;;;;;;1881735;74;26260;-87
2022/08/05 14:07:41;;;;;;;3.20;3.10;;;;;;;;;;1891554;75;26217;-88
2022/08/05 14:10:10;;;;;;;3.10;3.00;;;;;;;;;;1863037;76;26246;-87
2022/08/05 14:12:37;;;;;;;3.17;3.08;;;;;;;;;;1880871;75;26319;-88
2022/08/05 14:15:05;;;;;;;3.20;3.10;;;;;;;;;;1887374;74;26238;-87
2022/08/05 14:17:32;;;;;;;2.98;2.87;;;;;;;;;;1895505;74;26336;-88
2022/08/05 14:19:59;;;;;;;3.15;3.05;;;;;;;;;;1883612;74;26683;-88
2022/08/05 14:22:27;;;;;;;3.08;2.98;;;;;;;;;;1885391;74;26714;-89
2022/08/05 14:24:54;;;;;;;2.92;2.83;;;;;;;;;;1882924;74;26211;-88
2022/08/05 14:27:21;;;;;;;3.12;3.02;;;;;;;;;;1877647;74;26190;-88
2022/08/05 14:29:48;;;;;;;2.80;2.70;;;;;;;;;;1871835;74;26222;-88
2022/08/05 14:32:16;;;;;;;3.10;3.00;;;;;;;;;;1893348;74;26238;-89
2022/08/05 14:34:44;;;;;;;3.00;2.90;;;;;;;;;;1890496;74;27030;-88
2022/08/05 14:37:11;;;;;;;3.02;2.92;;;;;;;;;;1878837;75;26190;-90
2022/08/05 14:39:39;;;;;;;3.08;2.98;;;;;;;;;;1890460;75;26317;-89
2022/08/05 14:42:06;;;;;;;3.47;3.30;;;;;;;;;;1877702;75;26312;-89
2022/08/05 14:44:34;;;;;;;3.00;2.90;;;;;;;;;;1883090;75;26218;-89
2022/08/05 14:47:01;;;;;;;2.90;2.80;;;;;;;;;;1878002;75;26801;-88
2022/08/05 14:49:28;;;;;;;3.10;3.00;;;;;;;;;;1882295;74;26236;-92
2022/08/05 14:51:56;;;;;;;3.20;3.10;;;;;;;;;;1875219;74;26211;-90
2022/08/05 14:54:23;;;;;;;3.10;3.00;;;;;;;;;;1885066;75;26717;-88